createdAt,value
2019-05-07T00:01:13.748Z,5.20
2019-05-07T00:03:43.518Z,5.27
2019-05-07T00:06:13.273Z,5.70
2019-05-07T00:08:45.037Z,5.67
2019-05-07T00:11:15.014Z,5.83
2019-05-07T00:13:47.274Z,5.27
2019-05-07T00:16:16.981Z,5.73
2019-05-07T00:18:47.887Z,5.57
2019-05-07T00:21:19.774Z,6.57
2019-05-07T00:23:49.953Z,6.07
2019-05-07T00:26:19.673Z,6.43
2019-05-07T00:28:49.516Z,7.03
2019-05-07T00:31:23.077Z,8.20
2019-05-07T00:33:52.659Z,7.83
2019-05-07T00:36:56.159Z,8.10
2019-05-07T00:39:44.761Z,8.87
2019-05-07T00:42:22.030Z,8.20
2019-05-07T00:45:14.323Z,8.23
2019-05-07T00:47:33.011Z,8.30
2019-05-07T00:50:07.940Z,8.37
2019-05-07T00:52:37.995Z,8.20
2019-05-07T00:55:08.914Z,8.63
2019-05-07T00:57:39.015Z,7.90
2019-05-07T01:00:10.433Z,8.27
2019-05-07T01:02:42.946Z,8.80
2019-05-07T01:05:12.433Z,8.40
2019-05-07T01:07:42.686Z,8.43
2019-05-07T01:10:13.158Z,8.57
2019-05-07T01:12:42.906Z,8.60
2019-05-07T01:15:12.992Z,8.87
2019-05-07T01:17:43.745Z,8.93
2019-05-07T01:20:16.005Z,9.10
2019-05-07T01:22:46.904Z,9.30
2019-05-07T01:25:16.883Z,8.83
2019-05-07T01:27:47.018Z,8.33
2019-05-07T01:30:17.463Z,8.13
2019-05-07T01:32:53.989Z,9.00
2019-05-07T01:35:42.648Z,8.50
2019-05-07T01:38:15.661Z,8.50
2019-05-07T01:40:45.485Z,8.50
2019-05-07T01:43:16.070Z,7.73
2019-05-07T01:45:49.874Z,7.97
2019-05-07T01:48:20.103Z,7.97
2019-05-07T01:50:52.551Z,8.13
2019-05-07T01:53:22.823Z,7.63
2019-05-07T01:55:54.133Z,7.33
2019-05-07T01:58:23.875Z,6.47
2019-05-07T02:00:53.747Z,6.33
2019-05-07T02:03:45.588Z,6.60
2019-05-07T02:06:22.330Z,6.10
2019-05-07T02:09:12.964Z,5.53
2019-05-07T02:11:44.841Z,5.73
2019-05-07T02:14:16.326Z,5.37
2019-05-07T02:16:49.471Z,5.43
2019-05-07T02:19:19.452Z,4.70
2019-05-07T02:21:49.344Z,5.60
2019-05-07T02:24:19.544Z,5.60
2019-05-07T02:26:52.023Z,5.50
2019-05-07T02:29:22.804Z,5.50
2019-05-07T02:31:53.267Z,5.10
2019-05-07T02:34:23.549Z,5.60
2019-05-07T02:36:54.071Z,6.30
2019-05-07T02:39:37.523Z,5.50
2019-05-07T02:42:07.851Z,5.00
2019-05-07T02:44:56.885Z,3.73
2019-05-07T02:47:27.703Z,4.70
2019-05-07T02:50:03.044Z,4.47
2019-05-07T02:53:07.236Z,4.90
2019-05-07T02:55:43.796Z,4.00
2019-05-07T02:58:14.737Z,4.27
2019-05-07T03:00:45.369Z,4.40
2019-05-07T03:03:15.869Z,4.27
2019-05-07T03:05:46.100Z,3.57
2019-05-07T03:08:23.393Z,3.73
2019-05-07T03:10:52.752Z,3.80
2019-05-07T03:13:28.433Z,4.00
2019-05-07T03:15:58.526Z,3.70
2019-05-07T03:18:28.385Z,3.30
2019-05-07T03:21:04.283Z,3.97
2019-05-07T03:23:58.791Z,4.10
2019-05-07T03:26:34.175Z,3.90
2019-05-07T03:29:07.353Z,3.97
2019-05-07T03:32:09.801Z,3.70
2019-05-07T03:34:57.992Z,3.10
2019-05-07T03:37:33.114Z,3.30
2019-05-07T03:40:04.017Z,3.43
2019-05-07T03:42:34.305Z,3.40
2019-05-07T03:45:22.898Z,4.00
2019-05-07T03:47:59.443Z,3.00
2019-05-07T03:50:29.293Z,2.90
2019-05-07T03:53:02.865Z,2.47
2019-05-07T03:55:33.275Z,2.60
2019-05-07T03:58:04.752Z,2.37
2019-05-07T04:00:34.504Z,2.97
2019-05-07T04:03:04.156Z,2.70
2019-05-07T04:05:34.402Z,2.30
2019-05-07T04:08:05.478Z,2.20
2019-05-07T04:10:35.690Z,2.50
2019-05-07T04:13:06.172Z,2.00
2019-05-07T04:15:35.854Z,2.13
2019-05-07T04:18:06.018Z,2.37
2019-05-07T04:20:35.683Z,2.30
2019-05-07T04:23:08.527Z,2.17
2019-05-07T04:26:16.402Z,2.10
2019-05-07T04:28:55.382Z,2.07
2019-05-07T04:31:26.890Z,2.10
2019-05-07T04:33:58.917Z,2.47
2019-05-07T04:36:34.828Z,1.80
2019-05-07T04:39:07.954Z,2.07
2019-05-07T04:41:37.689Z,2.60
2019-05-07T04:44:07.493Z,2.50
2019-05-07T04:46:38.449Z,2.23
2019-05-07T04:49:08.224Z,2.30
2019-05-07T04:51:59.812Z,2.10
2019-05-07T04:54:32.763Z,2.03
2019-05-07T04:57:03.706Z,2.03
2019-05-07T04:59:33.714Z,2.10
2019-05-07T05:02:13.737Z,1.80
2019-05-07T05:04:44.205Z,1.90
2019-05-07T05:07:14.876Z,2.20
2019-05-07T05:09:45.596Z,1.80
2019-05-07T05:12:16.571Z,1.53
2019-05-07T05:14:47.002Z,2.00
2019-05-07T05:17:18.017Z,1.87
2019-05-07T05:19:47.925Z,1.83
2019-05-07T05:22:29.266Z,1.90
2019-05-07T05:25:18.673Z,1.70
2019-05-07T05:27:48.724Z,1.87
2019-05-07T05:30:25.291Z,1.73
2019-05-07T05:32:55.822Z,1.90
2019-05-07T05:35:26.923Z,1.83
2019-05-07T05:37:57.317Z,2.03
2019-05-07T05:40:27.855Z,1.67
2019-05-07T05:43:16.044Z,1.60
2019-05-07T05:45:49.228Z,1.70
2019-05-07T05:48:22.221Z,1.70
2019-05-07T05:51:17.323Z,1.60
2019-05-07T05:54:12.762Z,1.80
2019-05-07T05:57:00.045Z,1.77
2019-05-07T05:59:51.218Z,1.57
2019-05-07T06:02:47.131Z,1.40
2019-05-07T06:05:35.855Z,1.37
2019-05-07T06:08:20.312Z,1.40
2019-05-07T06:11:27.864Z,1.70
2019-05-07T06:14:15.934Z,1.50
2019-05-07T06:16:52.671Z,1.67
2019-05-07T06:19:42.476Z,1.40
2019-05-07T06:22:39.346Z,1.33
2019-05-07T06:25:15.388Z,1.30
2019-05-07T06:27:45.186Z,1.10
2019-05-07T06:30:15.877Z,1.27
2019-05-07T06:32:46.639Z,1.37
2019-05-07T06:35:19.379Z,1.23
2019-05-07T06:37:52.156Z,1.40
2019-05-07T06:40:51.947Z,1.30
2019-05-07T06:43:53.472Z,1.20
2019-05-07T06:46:24.714Z,1.20
2019-05-07T06:48:55.026Z,1.30
2019-05-07T06:51:25.301Z,1.17
2019-05-07T06:53:55.558Z,1.10
2019-05-07T06:56:25.588Z,1.10
2019-05-07T06:59:07.778Z,1.10
2019-05-07T07:01:56.788Z,1.27
2019-05-07T07:04:33.197Z,1.17
2019-05-07T07:07:31.038Z,1.10
2019-05-07T07:10:24.209Z,1.00
2019-05-07T07:12:56.512Z,1.07
2019-05-07T07:15:31.943Z,1.10
2019-05-07T07:18:03.137Z,1.10
2019-05-07T07:20:35.204Z,0.93
2019-05-07T07:23:05.316Z,1.00
2019-05-07T07:25:36.305Z,1.00
2019-05-07T07:28:06.205Z,1.20
2019-05-07T07:30:49.408Z,0.97
2019-05-07T07:33:19.797Z,1.00
2019-05-07T07:35:51.929Z,1.10
2019-05-07T07:38:34.088Z,1.00
2019-05-07T07:41:13.345Z,0.90
2019-05-07T07:43:43.305Z,1.10
2019-05-07T07:46:16.544Z,0.80
2019-05-07T07:48:45.561Z,0.80
2019-05-07T07:51:15.321Z,1.00
2019-05-07T07:53:45.716Z,0.90
2019-05-07T07:56:50.123Z,0.80
2019-05-07T07:59:33.880Z,0.70
2019-05-07T08:02:23.195Z,0.90
2019-05-07T08:04:54.631Z,1.20
2019-05-07T08:07:24.445Z,0.80
2019-05-07T08:09:54.697Z,1.13
2019-05-07T08:12:25.389Z,0.83
2019-05-07T08:15:13.516Z,1.10
2019-05-07T08:17:28.541Z,0.80
2019-05-07T08:19:58.791Z,0.70
2019-05-07T08:22:30.323Z,1.23
2019-05-07T08:25:01.935Z,0.80
2019-05-07T08:27:33.007Z,0.70
2019-05-07T08:30:06.986Z,0.80
2019-05-07T08:32:58.841Z,0.90
2019-05-07T08:35:44.958Z,0.80
2019-05-07T08:38:15.260Z,0.70
2019-05-07T08:40:46.496Z,0.90
2019-05-07T08:43:17.271Z,0.90
2019-05-07T08:46:16.104Z,1.00
2019-05-07T08:48:49.781Z,0.93
2019-05-07T08:51:19.853Z,0.80
2019-05-07T08:54:05.606Z,0.70
2019-05-07T08:56:36.897Z,0.93
2019-05-07T08:59:08.910Z,0.70
2019-05-07T09:01:43.370Z,0.80
2019-05-07T09:04:13.651Z,0.83
2019-05-07T09:06:43.899Z,0.50
2019-05-07T09:09:14.291Z,0.60
2019-05-07T09:11:44.285Z,0.67
2019-05-07T09:14:14.061Z,0.80
2019-05-07T09:16:44.877Z,0.80
2019-05-07T09:19:15.575Z,0.93
2019-05-07T09:21:45.221Z,0.90
2019-05-07T09:24:16.607Z,0.93
2019-05-07T09:27:12.046Z,0.93
2019-05-07T09:29:59.808Z,0.77
2019-05-07T09:32:39.805Z,0.83
2019-05-07T09:35:13.022Z,0.80
2019-05-07T09:37:43.544Z,0.70
2019-05-07T09:40:14.538Z,0.80
2019-05-07T09:42:44.774Z,1.00
2019-05-07T09:45:15.273Z,0.60
2019-05-07T09:47:45.040Z,0.70
2019-05-07T09:50:16.271Z,0.80
2019-05-07T09:52:48.048Z,1.00
2019-05-07T09:55:19.409Z,0.90
2019-05-07T09:57:49.214Z,0.80
2019-05-07T10:00:22.769Z,0.70
2019-05-07T10:02:52.936Z,0.70
2019-05-07T10:05:24.035Z,0.90
2019-05-07T10:07:53.901Z,0.77
2019-05-07T10:10:24.798Z,0.70
2019-05-07T10:13:03.370Z,0.70
2019-05-07T10:15:33.326Z,0.80
2019-05-07T10:18:15.150Z,0.73
2019-05-07T10:20:45.159Z,0.83
2019-05-07T10:23:23.191Z,0.60
2019-05-07T10:25:56.964Z,0.77
2019-05-07T10:28:26.778Z,0.80
2019-05-07T10:30:57.260Z,0.80
2019-05-07T10:33:26.948Z,0.80
2019-05-07T10:35:57.006Z,0.70
2019-05-07T10:38:27.262Z,0.70
2019-05-07T10:40:57.035Z,0.80
2019-05-07T10:43:27.043Z,0.83
2019-05-07T10:46:21.932Z,0.70
2019-05-07T10:48:59.497Z,0.83
2019-05-07T10:51:29.347Z,0.73
2019-05-07T10:53:59.140Z,0.70
2019-05-07T10:56:28.783Z,0.90
2019-05-07T10:58:58.362Z,0.70
2019-05-07T11:01:37.482Z,1.00
2019-05-07T11:04:07.304Z,1.00
2019-05-07T11:06:37.018Z,0.87
2019-05-07T11:09:08.617Z,0.97
2019-05-07T11:11:38.790Z,0.80
2019-05-07T11:14:08.718Z,0.90
2019-05-07T11:16:45.351Z,0.90
2019-05-07T11:19:15.044Z,0.90
2019-05-07T11:21:44.666Z,0.97
2019-05-07T11:24:14.853Z,0.90
2019-05-07T11:26:44.621Z,1.30
2019-05-07T11:29:14.576Z,1.10
2019-05-07T11:31:44.179Z,1.00
2019-05-07T11:34:14.005Z,1.33
2019-05-07T11:36:44.457Z,1.00
2019-05-07T11:39:14.188Z,1.10
2019-05-07T11:42:10.083Z,0.80
2019-05-07T11:44:39.753Z,1.00
2019-05-07T11:47:24.765Z,1.20
2019-05-07T11:50:24.116Z,1.23
2019-05-07T11:52:59.698Z,0.90
2019-05-07T11:55:29.371Z,1.40
2019-05-07T11:57:58.974Z,1.40
2019-05-07T12:00:42.470Z,1.33
2019-05-07T12:03:11.794Z,1.50
2019-05-07T12:05:43.097Z,1.30
2019-05-07T12:08:13.246Z,1.23
2019-05-07T12:10:42.963Z,1.37
2019-05-07T12:13:12.935Z,1.30
2019-05-07T12:15:42.955Z,1.40
2019-05-07T12:18:12.786Z,1.50
2019-05-07T12:20:42.645Z,1.60
2019-05-07T12:23:12.420Z,1.40
2019-05-07T12:25:42.439Z,1.87
2019-05-07T12:28:13.311Z,2.03
2019-05-07T12:30:56.128Z,1.90
2019-05-07T12:33:53.954Z,1.87
2019-05-07T12:36:23.991Z,1.70
2019-05-07T12:38:53.688Z,1.70
2019-05-07T12:41:41.917Z,2.00
2019-05-07T12:44:12.958Z,1.60
2019-05-07T12:46:42.909Z,1.60
2019-05-07T12:49:12.628Z,1.80
2019-05-07T12:51:54.100Z,2.00
2019-05-07T12:54:32.970Z,1.80
2019-05-07T12:57:02.528Z,2.07
2019-05-07T12:59:32.404Z,2.30
2019-05-07T13:02:26.820Z,2.27
2019-05-07T13:04:45.121Z,2.40
2019-05-07T13:07:33.620Z,2.30
2019-05-07T13:10:03.545Z,2.03
2019-05-07T13:12:33.301Z,2.23
2019-05-07T13:15:03.117Z,2.27
2019-05-07T13:17:33.729Z,2.30
2019-05-07T13:20:03.770Z,2.27
2019-05-07T13:22:33.450Z,2.73
2019-05-07T13:25:03.101Z,2.70
2019-05-07T13:27:33.020Z,1.93
2019-05-07T13:30:02.768Z,2.50
2019-05-07T13:32:34.580Z,2.50
2019-05-07T13:35:04.482Z,2.40
2019-05-07T13:37:36.941Z,3.00
2019-05-07T13:40:17.499Z,3.17
2019-05-07T13:43:20.033Z,3.70
2019-05-07T13:45:54.609Z,3.90
2019-05-07T13:48:24.749Z,3.60
2019-05-07T13:50:54.458Z,3.60
2019-05-07T13:53:24.350Z,3.90
2019-05-07T13:55:54.068Z,4.13
2019-05-07T13:58:23.812Z,4.37
2019-05-07T14:01:27.592Z,4.60
2019-05-07T14:03:57.330Z,4.23
2019-05-07T14:06:42.905Z,4.27
2019-05-07T14:09:24.999Z,4.53
2019-05-07T14:11:54.831Z,4.70
2019-05-07T14:14:24.788Z,4.53
2019-05-07T14:16:54.659Z,4.80
2019-05-07T14:19:24.316Z,5.10
2019-05-07T14:21:54.048Z,5.37
2019-05-07T14:24:24.229Z,5.60
2019-05-07T14:26:53.925Z,4.60
2019-05-07T14:29:24.830Z,5.03
2019-05-07T14:32:12.841Z,4.97
2019-05-07T14:35:02.158Z,4.70
2019-05-07T14:37:38.287Z,4.93
2019-05-07T14:40:09.148Z,5.13
2019-05-07T14:42:43.834Z,5.30
2019-05-07T14:45:13.889Z,5.17
2019-05-07T14:47:44.724Z,5.90
2019-05-07T14:50:15.116Z,5.70
2019-05-07T14:52:45.030Z,6.17
2019-05-07T14:55:14.913Z,6.50
2019-05-07T14:57:44.830Z,6.50
2019-05-07T15:00:15.311Z,6.60
2019-05-07T15:02:45.176Z,7.27
2019-05-07T15:05:15.011Z,7.37
2019-05-07T15:07:44.864Z,7.33
2019-05-07T15:10:14.798Z,7.73
2019-05-07T15:12:45.590Z,7.83
2019-05-07T15:15:15.489Z,7.50
2019-05-07T15:17:57.510Z,8.57
2019-05-07T15:20:27.541Z,7.63
2019-05-07T15:23:05.134Z,8.67
2019-05-07T15:25:35.153Z,8.07
2019-05-07T15:28:04.893Z,8.70
2019-05-07T15:30:43.195Z,7.93
2019-05-07T15:33:12.880Z,8.70
2019-05-07T15:35:42.689Z,8.10
2019-05-07T15:38:12.815Z,8.47
2019-05-07T15:40:42.640Z,8.77
2019-05-07T15:43:12.824Z,8.77
2019-05-07T15:45:42.925Z,8.10
2019-05-07T15:48:12.822Z,8.33
2019-05-07T15:50:42.972Z,8.50
2019-05-07T15:53:23.339Z,8.67
2019-05-07T15:55:52.993Z,8.40
2019-05-07T15:58:23.485Z,8.57
2019-05-07T16:00:53.341Z,9.43
2019-05-07T16:03:36.481Z,8.60
2019-05-07T16:06:06.384Z,9.23
2019-05-07T16:08:42.659Z,8.63
2019-05-07T16:11:12.677Z,8.40
2019-05-07T16:13:46.667Z,8.90
2019-05-07T16:16:16.288Z,9.23
2019-05-07T16:19:08.818Z,9.17
2019-05-07T16:21:38.474Z,9.10
2019-05-07T16:24:08.240Z,9.43
2019-05-07T16:26:38.006Z,9.33
2019-05-07T16:29:07.619Z,8.90
2019-05-07T16:31:37.332Z,9.10
2019-05-07T16:34:06.963Z,9.33
2019-05-07T16:36:36.597Z,9.40
2019-05-07T16:39:07.609Z,9.60
2019-05-07T16:41:37.291Z,9.43
2019-05-07T16:44:07.255Z,9.13
2019-05-07T16:46:36.891Z,9.30
2019-05-07T16:49:06.571Z,9.20
2019-05-07T16:51:36.269Z,8.87
2019-05-07T16:54:05.934Z,8.50
2019-05-07T16:56:37.301Z,8.80
2019-05-07T16:59:07.811Z,9.67
2019-05-07T17:01:37.454Z,8.77
2019-05-07T17:04:07.101Z,8.60
2019-05-07T17:06:36.777Z,8.67
2019-05-07T17:09:14.574Z,8.33
2019-05-07T17:11:44.206Z,9.00
2019-05-07T17:14:13.885Z,9.20
2019-05-07T17:16:43.553Z,9.07
2019-05-07T17:19:14.543Z,8.10
2019-05-07T17:21:44.187Z,8.47
2019-05-07T17:24:13.857Z,8.63
2019-05-07T17:26:43.493Z,8.63
2019-05-07T17:29:13.222Z,8.93
2019-05-07T17:31:42.980Z,8.60
2019-05-07T17:34:12.689Z,9.63
2019-05-07T17:36:42.432Z,9.20
2019-05-07T17:39:12.350Z,9.40
2019-05-07T17:41:43.038Z,8.70
2019-05-07T17:44:12.921Z,8.80
2019-05-07T17:46:43.192Z,9.00
2019-05-07T17:49:13.956Z,8.70
2019-05-07T17:51:48.287Z,8.87
2019-05-07T17:54:17.873Z,8.30
2019-05-07T17:56:47.495Z,8.00
2019-05-07T17:59:17.203Z,8.30
2019-05-07T18:02:04.338Z,8.27
2019-05-07T18:04:48.500Z,7.80
2019-05-07T18:07:11.989Z,7.97
2019-05-07T18:09:42.539Z,8.00
2019-05-07T18:12:12.226Z,7.63
2019-05-07T18:14:42.512Z,7.50
2019-05-07T18:17:19.320Z,7.10
2019-05-07T18:19:49.935Z,7.70
2019-05-07T18:22:21.985Z,7.47
2019-05-07T18:24:51.210Z,7.97
2019-05-07T18:27:25.300Z,8.80
2019-05-07T18:29:55.121Z,7.53
2019-05-07T18:32:32.425Z,8.53
2019-05-07T18:35:02.455Z,7.70
2019-05-07T18:37:32.602Z,8.00
2019-05-07T18:40:02.658Z,7.83
2019-05-07T18:42:32.811Z,7.97
2019-05-07T18:45:04.419Z,7.80
2019-05-07T18:47:34.015Z,7.70
2019-05-07T18:50:03.677Z,7.43
2019-05-07T18:52:33.366Z,7.07
2019-05-07T18:55:02.999Z,6.67
2019-05-07T18:57:36.971Z,7.00
2019-05-07T19:00:10.509Z,7.03
2019-05-07T19:02:42.738Z,7.07
2019-05-07T19:05:14.214Z,6.90
2019-05-07T19:07:45.724Z,7.47
2019-05-07T19:10:16.759Z,6.80
2019-05-07T19:12:46.993Z,7.67
2019-05-07T19:15:21.952Z,7.40
2019-05-07T19:17:54.253Z,7.30
2019-05-07T19:20:26.892Z,7.10
2019-05-07T19:22:57.677Z,7.40
2019-05-07T19:25:28.140Z,6.80
2019-05-07T19:27:59.089Z,7.87
2019-05-07T19:30:32.667Z,7.00
2019-05-07T19:33:02.542Z,7.20
2019-05-07T19:35:33.536Z,7.50
2019-05-07T19:38:04.219Z,7.27
2019-05-07T19:40:34.109Z,7.53
2019-05-07T19:43:04.444Z,7.80
2019-05-07T19:45:35.234Z,7.63
2019-05-07T19:48:05.245Z,7.03
2019-05-07T19:50:39.023Z,6.67
2019-05-07T19:53:12.501Z,6.90
2019-05-07T19:56:02.440Z,7.37
2019-05-07T19:58:35.376Z,7.17
2019-05-07T20:01:12.119Z,7.37
2019-05-07T20:03:43.450Z,7.40
2019-05-07T20:06:14.739Z,6.67
2019-05-07T20:08:46.770Z,7.30
2019-05-07T20:11:23.772Z,7.80
2019-05-07T20:13:57.733Z,6.70
2019-05-07T20:16:32.979Z,6.70
2019-05-07T20:19:08.773Z,7.50
2019-05-07T20:21:42.285Z,7.10
2019-05-07T20:24:14.033Z,7.30
2019-05-07T20:26:48.525Z,7.47
2019-05-07T20:29:19.504Z,6.87
2019-05-07T20:31:53.296Z,6.80
2019-05-07T20:34:27.208Z,6.40
2019-05-07T20:37:04.892Z,7.67
2019-05-07T20:39:35.146Z,6.83
2019-05-07T20:42:12.387Z,6.60
2019-05-07T20:44:45.783Z,7.10
2019-05-07T20:47:21.880Z,6.83
2019-05-07T20:49:54.509Z,7.10
2019-05-07T20:52:28.089Z,6.73
2019-05-07T20:55:30.626Z,7.00
2019-05-07T20:57:54.089Z,6.87
2019-05-07T21:00:26.766Z,7.47
2019-05-07T21:03:14.285Z,7.30
2019-05-07T21:05:43.941Z,7.50
2019-05-07T21:08:15.207Z,7.60
2019-05-07T21:10:44.900Z,7.53
2019-05-07T21:13:27.512Z,7.23
2019-05-07T21:15:48.411Z,7.40
2019-05-07T21:18:23.323Z,7.13
2019-05-07T21:20:56.759Z,7.47
2019-05-07T21:23:27.677Z,7.30
2019-05-07T21:25:57.463Z,7.30
2019-05-07T21:28:27.139Z,7.60
2019-05-07T21:30:57.002Z,8.00
2019-05-07T21:33:32.052Z,7.50
2019-05-07T21:36:02.886Z,7.40
2019-05-07T21:38:42.493Z,7.43
2019-05-07T21:41:12.998Z,8.27
2019-05-07T21:43:46.023Z,8.33
2019-05-07T21:46:14.381Z,8.20
2019-05-07T21:48:44.075Z,8.00
2019-05-07T21:51:13.753Z,8.30
2019-05-07T21:53:51.578Z,8.03
2019-05-07T21:56:40.121Z,8.10
2019-05-07T21:59:13.689Z,7.40
2019-05-07T22:01:49.507Z,7.50
2019-05-07T22:04:19.333Z,7.50
2019-05-07T22:06:49.295Z,7.97
2019-05-07T22:09:19.495Z,8.53
2019-05-07T22:11:53.728Z,8.07
2019-05-07T22:14:23.689Z,7.80
2019-05-07T22:16:54.581Z,7.80
2019-05-07T22:19:24.512Z,8.13
2019-05-07T22:21:54.628Z,8.10
2019-05-07T22:24:24.413Z,8.00
2019-05-07T22:26:54.044Z,7.70
2019-05-07T22:29:23.965Z,8.40
2019-05-07T22:32:02.611Z,8.87
2019-05-07T22:34:36.146Z,8.53
2019-05-07T22:37:05.938Z,8.60
2019-05-07T22:39:35.609Z,8.63
2019-05-07T22:42:05.309Z,8.53
2019-05-07T22:44:34.980Z,8.50
2019-05-07T22:47:23.507Z,9.27
2019-05-07T22:49:53.909Z,8.83
2019-05-07T22:52:23.591Z,8.87
2019-05-07T22:54:53.244Z,9.00
2019-05-07T22:57:32.434Z,9.23
2019-05-07T23:00:04.329Z,8.90
2019-05-07T23:02:32.801Z,8.90
2019-05-07T23:05:03.014Z,8.90
2019-05-07T23:07:35.781Z,9.37
2019-05-07T23:10:05.952Z,9.03
2019-05-07T23:12:35.762Z,8.90
2019-05-07T23:15:06.572Z,9.00
2019-05-07T23:17:36.206Z,8.50
2019-05-07T23:20:06.223Z,9.03
2019-05-07T23:22:35.838Z,8.97
2019-05-07T23:25:05.474Z,8.47
2019-05-07T23:27:35.184Z,8.53
2019-05-07T23:30:05.060Z,9.10
2019-05-07T23:32:34.780Z,8.90
2019-05-07T23:35:04.892Z,8.87
2019-05-07T23:37:34.702Z,9.10
2019-05-07T23:40:12.196Z,9.10
2019-05-07T23:42:43.146Z,9.47
2019-05-07T23:45:12.915Z,8.70
2019-05-07T23:47:44.627Z,8.70
2019-05-07T23:50:14.042Z,8.87
2019-05-07T23:52:44.167Z,9.33
2019-05-07T23:55:14.320Z,9.07
2019-05-07T23:57:43.997Z,8.00
